This is the latest recevied weather packets stored in our database for station/object KD9DOE. If no packets are shown the sender has not sent any weather packets the latest 10 day(s).
| Time | Temp. | Humidity | Pressure | Rain* | Wind** | Luminosity | Snow |
|---|---|---|---|---|---|---|---|
| 1778027336 | 11.67° C | 31% | 1009.2 hPa | 0 mm | - | 15 W/m² | - |
| 1778027032 | 11.67° C | 31% | 1009.1 hPa | 0 mm | - | 20 W/m² | - |
| 1778026728 | 11.67° C | 31% | 1009.1 hPa | 0 mm | - | 24 W/m² | - |
| 1778026425 | 11.67° C | 32% | 1009 hPa | 0 mm | - | 29 W/m² | - |
| 1778026122 | 11.67° C | 33% | 1009.1 hPa | 0 mm | - | 33 W/m² | - |
| 1778025820 | 11.67° C | 31% | 1009 hPa | 0 mm | - | 36 W/m² | - |
| 1778025516 | 11.67° C | 32% | 1009.1 hPa | 0 mm | - | 42 W/m² | - |
| 1778025214 | 11.67° C | 31% | 1009.1 hPa | 0 mm | - | 43 W/m² | - |
| 1778024910 | 12.22° C | 31% | 1009 hPa | 0 mm | - | 46 W/m² | - |
| 1778024609 | 12.22° C | 31% | 1009 hPa | 0 mm | - | 57 W/m² | - |
| 1778024305 | 12.22° C | 31% | 1008.9 hPa | 0 mm | - | 54 W/m² | - |
| 1778024003 | 12.78° C | 31% | 1009.1 hPa | 0 mm | - | 61 W/m² | - |
| 1778023700 | 12.78° C | 30% | 1009.1 hPa | 0 mm | - | 63 W/m² | - |
| 1778023398 | 12.78° C | 29% | 1009.1 hPa | 0 mm | - | 96 W/m² | - |
| 1778023094 | 12.78° C | 30% | 1008.9 hPa | 0 mm | - | 95 W/m² | - |
| 1778022793 | 12.78° C | 29% | 1009 hPa | 0 mm | - | 67 W/m² | - |
| 1778022490 | 13.89° C | 28% | 1008.9 hPa | 0 mm | - | 78 W/m² | - |
| 1778022187 | 13.89° C | 28% | 1009.1 hPa | 0 mm | - | 129 W/m² | - |
| 1778021883 | 13.89° C | 28% | 1009 hPa | 0 mm | - | 151 W/m² | - |
| 1778021581 | 13.89° C | 29% | 1008.9 hPa | 0 mm | - | 139 W/m² | - |
| 1778021275 | 13.33° C | 28% | 1008.8 hPa | 0 mm | - | 193 W/m² | - |
| 1778020974 | 13.89° C | 28% | 1008.8 hPa | 0 mm | - | 209 W/m² | - |
| 1778020671 | 14.44° C | 28% | 1008.8 hPa | 0 mm | - | 165 W/m² | - |
| 1778020367 | 13.89° C | 28% | 1008.9 hPa | 0 mm | - | 238 W/m² | - |
| 1778020063 | 13.89° C | 27% | 1008.4 hPa | 0 mm | - | 151 W/m² | - |
* Rain latest hour (hover to see other rain measurements)
** Current wind speed in m/s (hover to see current wind gust speed)